createdAt,value
2019-03-17T00:02:00.803Z,4.70
2019-03-17T00:04:31.621Z,4.20
2019-03-17T00:06:59.991Z,4.30
2019-03-17T00:09:28.740Z,4.15
2019-03-17T00:11:57.819Z,4.20
2019-03-17T00:14:26.571Z,4.35
2019-03-17T00:16:55.605Z,4.10
2019-03-17T00:19:27.525Z,4.47
2019-03-17T00:21:55.266Z,4.40
2019-03-17T00:24:24.344Z,4.33
2019-03-17T00:26:53.091Z,4.42
2019-03-17T00:29:22.172Z,4.42
2019-03-17T00:31:50.905Z,4.40
2019-03-17T00:34:19.718Z,4.40
2019-03-17T00:36:48.471Z,4.40
2019-03-17T00:39:17.324Z,4.50
2019-03-17T00:41:46.139Z,4.58
2019-03-17T00:44:14.882Z,4.85
2019-03-17T00:46:44.252Z,4.60
2019-03-17T00:49:12.987Z,4.55
2019-03-17T00:51:41.844Z,4.37
2019-03-17T00:54:10.927Z,4.45
2019-03-17T00:56:39.743Z,4.90
2019-03-17T00:59:08.495Z,4.10
2019-03-17T01:01:37.236Z,4.30
2019-03-17T01:04:05.970Z,4.55
2019-03-17T01:06:34.787Z,4.40
2019-03-17T01:09:04.111Z,4.40
2019-03-17T01:11:33.028Z,4.53
2019-03-17T01:14:02.089Z,4.50
2019-03-17T01:16:30.934Z,4.40
2019-03-17T01:18:59.827Z,4.20
2019-03-17T01:21:28.596Z,4.30
2019-03-17T01:23:57.328Z,3.72
2019-03-17T01:26:26.311Z,3.90
2019-03-17T01:28:55.284Z,3.50
2019-03-17T01:31:24.079Z,3.33
2019-03-17T01:33:52.808Z,3.15
2019-03-17T01:36:21.646Z,3.20
2019-03-17T01:38:50.391Z,3.20
2019-03-17T01:41:19.150Z,3.20
2019-03-17T01:43:48.230Z,3.20
2019-03-17T01:46:16.962Z,3.20
2019-03-17T01:48:45.692Z,3.08
2019-03-17T01:51:17.584Z,3.00
2019-03-17T01:53:46.578Z,3.20
2019-03-17T01:56:15.590Z,3.27
2019-03-17T01:58:44.404Z,3.30
2019-03-17T02:01:13.140Z,3.10
2019-03-17T02:03:41.963Z,3.20
2019-03-17T02:06:10.856Z,2.95
2019-03-17T02:08:39.911Z,2.92
2019-03-17T02:11:08.635Z,2.87
2019-03-17T02:13:37.395Z,3.20
2019-03-17T02:16:06.217Z,3.10
2019-03-17T02:18:35.308Z,3.00
2019-03-17T02:21:04.187Z,3.05
2019-03-17T02:23:32.999Z,2.87
2019-03-17T02:26:01.719Z,3.27
2019-03-17T02:28:30.456Z,2.90
2019-03-17T02:30:59.201Z,2.95
2019-03-17T02:33:27.928Z,2.95
2019-03-17T02:35:56.669Z,3.12
2019-03-17T02:38:25.413Z,2.85
2019-03-17T02:40:54.356Z,2.83
2019-03-17T02:43:23.332Z,2.70
2019-03-17T02:45:52.457Z,2.90
2019-03-17T02:48:21.491Z,2.85
2019-03-17T02:50:50.732Z,2.90
2019-03-17T02:53:19.481Z,3.12
2019-03-17T02:55:48.457Z,2.95
2019-03-17T02:58:17.270Z,3.15
2019-03-17T03:00:46.007Z,2.87
2019-03-17T03:03:15.882Z,3.30
2019-03-17T03:05:54.606Z,2.90
2019-03-17T03:08:15.300Z,3.22
2019-03-17T03:10:44.046Z,3.10
2019-03-17T03:13:12.813Z,3.30
2019-03-17T03:15:41.594Z,3.40
2019-03-17T03:18:10.360Z,3.30
2019-03-17T03:20:39.184Z,3.23
2019-03-17T03:23:08.053Z,3.23
2019-03-17T03:25:36.800Z,3.30
2019-03-17T03:28:05.524Z,3.42
2019-03-17T03:30:34.253Z,3.62
2019-03-17T03:33:02.969Z,3.20
2019-03-17T03:35:31.941Z,3.58
2019-03-17T03:38:00.918Z,3.40
2019-03-17T03:40:29.743Z,3.30
2019-03-17T03:42:59.231Z,3.42
2019-03-17T03:45:27.996Z,3.25
2019-03-17T03:47:56.716Z,3.90
2019-03-17T03:50:25.464Z,3.40
2019-03-17T03:52:54.192Z,3.45
2019-03-17T03:55:23.013Z,3.70
2019-03-17T03:57:52.254Z,3.60
2019-03-17T04:00:21.064Z,3.75
2019-03-17T04:02:49.852Z,3.55
2019-03-17T04:05:18.632Z,3.70
2019-03-17T04:07:47.401Z,3.50
2019-03-17T04:10:16.532Z,3.37
2019-03-17T04:12:45.370Z,3.30
2019-03-17T04:15:14.487Z,3.20
2019-03-17T04:17:43.576Z,3.27
2019-03-17T04:20:12.715Z,3.37
2019-03-17T04:22:42.072Z,3.27
2019-03-17T04:25:14.836Z,3.30
2019-03-17T04:27:43.825Z,3.00
2019-03-17T04:30:12.735Z,3.05
2019-03-17T04:32:41.713Z,3.30
2019-03-17T04:35:10.524Z,3.12
2019-03-17T04:37:39.574Z,3.10
2019-03-17T04:40:08.879Z,3.30
2019-03-17T04:42:37.800Z,3.30
2019-03-17T04:45:07.793Z,3.17
2019-03-17T04:47:36.771Z,3.40
2019-03-17T04:50:05.994Z,3.00
2019-03-17T04:52:35.240Z,3.30
2019-03-17T04:55:04.499Z,3.70
2019-03-17T04:57:33.300Z,3.20
2019-03-17T05:00:02.516Z,3.60
2019-03-17T05:02:31.588Z,3.30
2019-03-17T05:05:00.434Z,3.60
2019-03-17T05:07:29.184Z,3.27
2019-03-17T05:09:58.175Z,3.25
2019-03-17T05:12:26.929Z,3.17
2019-03-17T05:14:55.905Z,3.30
2019-03-17T05:17:24.639Z,3.12
2019-03-17T05:19:53.605Z,3.23
2019-03-17T05:22:22.347Z,3.33
2019-03-17T05:24:51.377Z,3.50
2019-03-17T05:27:20.210Z,3.20
2019-03-17T05:29:49.190Z,3.35
2019-03-17T05:32:17.916Z,3.60
2019-03-17T05:34:46.655Z,3.47
2019-03-17T05:37:15.693Z,3.33
2019-03-17T05:39:44.414Z,3.67
2019-03-17T05:42:13.192Z,3.52
2019-03-17T05:44:42.224Z,3.20
2019-03-17T05:47:11.193Z,3.60
2019-03-17T05:49:39.930Z,3.60
2019-03-17T05:52:08.730Z,3.40
2019-03-17T05:54:37.530Z,3.47
2019-03-17T05:57:06.258Z,3.70
2019-03-17T05:59:35.255Z,3.50
2019-03-17T06:02:04.135Z,3.58
2019-03-17T06:04:33.123Z,3.55
2019-03-17T06:07:02.475Z,3.90
2019-03-17T06:09:31.208Z,3.60
2019-03-17T06:12:00.199Z,3.67
2019-03-17T06:14:29.184Z,3.52
2019-03-17T06:16:57.897Z,3.40
2019-03-17T06:19:26.883Z,3.30
2019-03-17T06:21:55.936Z,3.60
2019-03-17T06:24:24.667Z,3.45
2019-03-17T06:26:53.789Z,3.75
2019-03-17T06:29:22.594Z,3.50
2019-03-17T06:31:51.316Z,3.45
2019-03-17T06:34:20.058Z,3.67
2019-03-17T06:36:48.805Z,3.80
2019-03-17T06:39:17.859Z,3.70
2019-03-17T06:41:46.897Z,3.85
2019-03-17T06:44:16.139Z,4.10
2019-03-17T06:46:45.321Z,3.80
2019-03-17T06:49:14.168Z,3.50
2019-03-17T06:51:42.878Z,3.40
2019-03-17T06:54:11.655Z,3.65
2019-03-17T06:56:40.387Z,3.67
2019-03-17T06:59:09.396Z,3.90
2019-03-17T07:01:38.139Z,3.87
2019-03-17T07:04:06.934Z,4.00
2019-03-17T07:06:35.875Z,4.03
2019-03-17T07:09:06.726Z,3.90
2019-03-17T07:11:36.504Z,3.80
2019-03-17T07:14:06.584Z,3.65
2019-03-17T07:16:35.780Z,3.50
2019-03-17T07:19:04.712Z,3.53
2019-03-17T07:21:34.846Z,3.77
2019-03-17T07:24:03.671Z,3.57
2019-03-17T07:26:32.519Z,3.37
2019-03-17T07:29:01.738Z,3.85
2019-03-17T07:31:30.801Z,3.83
2019-03-17T07:33:59.938Z,4.15
2019-03-17T07:36:28.964Z,3.93
2019-03-17T07:38:57.795Z,3.90
2019-03-17T07:41:27.809Z,4.10
2019-03-17T07:43:56.796Z,4.33
2019-03-17T07:46:25.937Z,4.45
2019-03-17T07:48:54.667Z,3.83
2019-03-17T07:51:23.780Z,4.12
2019-03-17T07:53:52.760Z,4.30
2019-03-17T07:56:21.501Z,4.30
2019-03-17T07:58:50.367Z,3.85
2019-03-17T08:01:19.367Z,3.90
2019-03-17T08:03:48.193Z,4.25
2019-03-17T08:06:16.941Z,4.35
2019-03-17T08:08:45.843Z,4.10
2019-03-17T08:11:14.643Z,4.12
2019-03-17T08:13:43.412Z,4.30
2019-03-17T08:16:12.252Z,4.33
2019-03-17T08:18:40.994Z,4.35
2019-03-17T08:21:09.722Z,4.40
2019-03-17T08:23:38.640Z,4.73
2019-03-17T08:26:07.425Z,4.00
2019-03-17T08:28:36.560Z,4.30
2019-03-17T08:31:05.392Z,4.33
2019-03-17T08:33:34.489Z,4.37
2019-03-17T08:36:03.391Z,4.10
2019-03-17T08:38:32.163Z,4.28
2019-03-17T08:41:00.929Z,4.00
2019-03-17T08:43:30.032Z,4.40
2019-03-17T08:45:59.117Z,4.20
2019-03-17T08:48:27.860Z,4.10
2019-03-17T08:50:56.688Z,4.15
2019-03-17T08:53:25.789Z,4.17
2019-03-17T08:55:54.948Z,4.33
2019-03-17T08:58:23.739Z,4.40
2019-03-17T09:00:52.875Z,4.05
2019-03-17T09:03:22.273Z,4.35
2019-03-17T09:05:51.006Z,4.60
2019-03-17T09:08:20.085Z,4.47
2019-03-17T09:10:49.264Z,4.72
2019-03-17T09:13:21.189Z,4.87
2019-03-17T09:15:49.944Z,4.42
2019-03-17T09:18:18.660Z,4.50
2019-03-17T09:20:47.852Z,4.60
2019-03-17T09:23:16.617Z,4.23
2019-03-17T09:25:45.489Z,4.10
2019-03-17T09:28:14.264Z,4.55
2019-03-17T09:30:43.479Z,4.40
2019-03-17T09:33:12.507Z,4.65
2019-03-17T09:35:41.427Z,5.00
2019-03-17T09:38:10.145Z,4.30
2019-03-17T09:40:38.895Z,4.00
2019-03-17T09:43:07.655Z,4.20
2019-03-17T09:45:36.440Z,4.50
2019-03-17T09:48:05.426Z,4.22
2019-03-17T09:50:34.591Z,4.23
2019-03-17T09:53:03.459Z,4.35
2019-03-17T09:55:32.237Z,4.23
2019-03-17T09:58:02.091Z,4.47
2019-03-17T10:00:31.325Z,4.40
2019-03-17T10:03:00.156Z,4.53
2019-03-17T10:05:29.290Z,4.70
2019-03-17T10:07:58.631Z,5.10
2019-03-17T10:10:28.773Z,4.85
2019-03-17T10:12:57.988Z,5.27
2019-03-17T10:15:26.824Z,5.10
2019-03-17T10:17:55.577Z,5.33
2019-03-17T10:20:24.337Z,5.17
2019-03-17T10:22:53.777Z,5.80
2019-03-17T10:25:22.632Z,5.37
2019-03-17T10:27:51.758Z,5.08
2019-03-17T10:30:21.055Z,4.90
2019-03-17T10:32:50.157Z,5.40
2019-03-17T10:35:19.572Z,5.10
2019-03-17T10:37:48.296Z,5.22
2019-03-17T10:40:17.305Z,5.60
2019-03-17T10:42:46.057Z,5.10
2019-03-17T10:45:15.128Z,5.10
2019-03-17T10:47:44.630Z,5.05
2019-03-17T10:50:14.483Z,5.12
2019-03-17T10:52:43.372Z,6.00
2019-03-17T10:55:12.401Z,6.15
2019-03-17T10:57:42.416Z,6.50
2019-03-17T11:00:13.309Z,5.83
2019-03-17T11:02:42.899Z,6.20
2019-03-17T11:05:11.695Z,6.70
2019-03-17T11:07:40.450Z,5.53
2019-03-17T11:10:10.798Z,5.70
2019-03-17T11:12:39.892Z,5.10
2019-03-17T11:15:10.318Z,4.55
2019-03-17T11:17:39.271Z,3.62
2019-03-17T11:20:27.207Z,3.72
2019-03-17T11:22:55.933Z,3.20
2019-03-17T11:25:24.749Z,3.50
2019-03-17T11:27:53.463Z,2.98
2019-03-17T11:30:22.554Z,2.80
2019-03-17T11:32:51.596Z,2.72
2019-03-17T11:35:20.432Z,2.50
2019-03-17T11:37:49.585Z,2.22
2019-03-17T11:40:19.050Z,1.90
2019-03-17T11:42:49.821Z,1.53
2019-03-17T11:45:18.787Z,1.52
2019-03-17T11:47:47.790Z,1.80
2019-03-17T11:50:17.343Z,1.60
2019-03-17T11:52:46.141Z,1.50
2019-03-17T11:55:15.227Z,1.50
2019-03-17T11:57:44.225Z,1.30
2019-03-17T12:00:13.920Z,1.30
2019-03-17T12:02:42.897Z,1.10
2019-03-17T12:05:23.255Z,1.20
2019-03-17T12:07:52.451Z,1.30
2019-03-17T12:10:21.653Z,1.20
2019-03-17T12:12:51.262Z,1.45
2019-03-17T12:15:20.407Z,1.57
2019-03-17T12:17:49.714Z,1.40
2019-03-17T12:20:18.989Z,1.40
2019-03-17T12:22:52.205Z,1.22
2019-03-17T12:25:30.925Z,1.30
2019-03-17T12:27:59.751Z,1.30
2019-03-17T12:30:28.647Z,1.45
2019-03-17T12:32:57.451Z,1.60
2019-03-17T12:35:26.273Z,1.82
2019-03-17T12:37:55.176Z,1.70
2019-03-17T12:40:24.236Z,1.50
2019-03-17T12:42:53.346Z,1.50
2019-03-17T12:45:23.253Z,1.47
2019-03-17T12:47:52.697Z,1.50
2019-03-17T12:50:21.856Z,1.57
2019-03-17T12:52:50.946Z,1.50
2019-03-17T12:55:19.663Z,1.50
2019-03-17T12:57:48.844Z,1.70
2019-03-17T13:00:17.916Z,1.57
2019-03-17T13:02:46.674Z,1.40
2019-03-17T13:05:15.635Z,1.40
2019-03-17T13:07:44.732Z,1.40
2019-03-17T13:10:16.239Z,1.75
2019-03-17T13:12:45.351Z,1.60
2019-03-17T13:15:15.167Z,1.72
2019-03-17T13:17:43.987Z,1.50
2019-03-17T13:20:13.084Z,1.50
2019-03-17T13:22:41.904Z,1.60
2019-03-17T13:25:10.872Z,1.50
2019-03-17T13:27:39.635Z,1.60
2019-03-17T13:30:09.980Z,1.30
2019-03-17T13:32:39.076Z,1.30
2019-03-17T13:35:08.631Z,1.40
2019-03-17T13:37:37.406Z,1.50
2019-03-17T13:40:07.935Z,1.30
2019-03-17T13:42:36.675Z,1.63
2019-03-17T13:45:06.284Z,1.75
2019-03-17T13:47:35.021Z,1.42
2019-03-17T13:50:04.091Z,1.40
2019-03-17T13:52:32.989Z,1.35
2019-03-17T13:55:01.865Z,1.53
2019-03-17T13:57:30.713Z,1.42
2019-03-17T13:59:59.927Z,1.80
2019-03-17T14:02:29.067Z,1.37
2019-03-17T14:04:58.733Z,1.90
2019-03-17T14:07:30.824Z,1.70
2019-03-17T14:10:12.701Z,1.57
2019-03-17T14:12:35.867Z,1.60
2019-03-17T14:15:05.685Z,1.60
2019-03-17T14:17:35.293Z,1.70
2019-03-17T14:20:04.576Z,1.80
2019-03-17T14:22:33.381Z,1.70
2019-03-17T14:25:03.036Z,1.70
2019-03-17T14:27:36.830Z,1.80
2019-03-17T14:30:06.856Z,1.60
2019-03-17T14:32:35.595Z,1.70
2019-03-17T14:35:04.788Z,1.67
2019-03-17T14:37:34.212Z,1.80
2019-03-17T14:40:03.183Z,1.60
2019-03-17T14:42:31.968Z,1.70
2019-03-17T14:45:01.249Z,1.50
2019-03-17T14:47:30.260Z,1.67
2019-03-17T14:49:59.617Z,1.60
2019-03-17T14:52:28.322Z,1.95
2019-03-17T14:54:57.333Z,1.70
2019-03-17T14:57:29.007Z,1.77
2019-03-17T14:59:58.918Z,1.80
2019-03-17T15:02:31.122Z,1.80
2019-03-17T15:05:01.668Z,1.70
2019-03-17T15:07:30.424Z,1.55
2019-03-17T15:09:59.627Z,1.70
2019-03-17T15:12:28.431Z,1.70
2019-03-17T15:14:57.483Z,1.80
2019-03-17T15:17:26.403Z,1.70
2019-03-17T15:19:55.125Z,1.72
2019-03-17T15:22:23.892Z,1.70
2019-03-17T15:24:53.178Z,1.70
2019-03-17T15:27:21.910Z,1.80
2019-03-17T15:29:51.456Z,1.77
2019-03-17T15:32:20.583Z,2.12
2019-03-17T15:34:49.362Z,1.70
2019-03-17T15:37:18.357Z,1.62
2019-03-17T15:39:48.093Z,1.70
2019-03-17T15:42:19.263Z,1.87
2019-03-17T15:44:48.128Z,1.80
2019-03-17T15:47:17.573Z,1.90
2019-03-17T15:49:47.653Z,1.70
2019-03-17T15:52:17.499Z,1.57
2019-03-17T15:54:46.596Z,1.80
2019-03-17T15:57:16.125Z,1.60
2019-03-17T15:59:45.199Z,1.50
2019-03-17T16:02:15.772Z,1.63
2019-03-17T16:04:45.347Z,1.50
2019-03-17T16:07:14.107Z,1.60
2019-03-17T16:09:43.968Z,1.80
2019-03-17T16:12:15.288Z,1.90
2019-03-17T16:14:44.424Z,2.13
2019-03-17T16:17:13.674Z,1.90
2019-03-17T16:19:42.439Z,1.87
2019-03-17T16:22:13.799Z,1.97
2019-03-17T16:24:42.851Z,1.80
2019-03-17T16:27:11.942Z,2.00
2019-03-17T16:29:41.115Z,2.10
2019-03-17T16:32:10.616Z,2.25
2019-03-17T16:34:39.400Z,1.80
2019-03-17T16:37:08.850Z,1.65
2019-03-17T16:39:37.672Z,1.70
2019-03-17T16:42:06.503Z,1.40
2019-03-17T16:44:35.248Z,1.60
2019-03-17T16:47:04.480Z,1.50
2019-03-17T16:49:33.292Z,1.50
2019-03-17T16:52:21.290Z,1.80
2019-03-17T16:54:50.028Z,1.67
2019-03-17T16:57:19.965Z,1.60
2019-03-17T16:59:48.733Z,1.30
2019-03-17T17:02:17.484Z,1.40
2019-03-17T17:04:46.989Z,1.70
2019-03-17T17:07:15.840Z,1.98
2019-03-17T17:09:44.593Z,1.90
2019-03-17T17:12:13.688Z,1.80
2019-03-17T17:14:42.534Z,1.50
2019-03-17T17:17:11.697Z,1.50
2019-03-17T17:19:40.791Z,1.42
2019-03-17T17:22:09.999Z,1.60
2019-03-17T17:24:38.991Z,1.52
2019-03-17T17:27:08.080Z,1.55
2019-03-17T17:29:36.837Z,1.45
2019-03-17T17:32:06.092Z,1.70
2019-03-17T17:34:35.459Z,1.42
2019-03-17T17:37:04.248Z,1.60
2019-03-17T17:39:33.546Z,1.73
2019-03-17T17:42:08.780Z,1.60
2019-03-17T17:44:33.179Z,1.50
2019-03-17T17:47:01.931Z,2.10
2019-03-17T17:49:30.754Z,1.90
2019-03-17T17:51:59.523Z,1.80
2019-03-17T17:54:28.638Z,1.67
2019-03-17T17:56:57.726Z,1.77
2019-03-17T17:59:26.468Z,1.90
2019-03-17T18:01:55.205Z,1.80
2019-03-17T18:04:24.036Z,1.80
2019-03-17T18:06:52.791Z,1.62
2019-03-17T18:09:21.762Z,1.95
2019-03-17T18:11:50.507Z,1.85
2019-03-17T18:14:19.548Z,1.85
2019-03-17T18:16:48.335Z,1.70
2019-03-17T18:19:17.190Z,1.70
2019-03-17T18:21:46.045Z,1.80
2019-03-17T18:24:15.111Z,1.87
2019-03-17T18:26:44.103Z,1.70
2019-03-17T18:29:13.229Z,1.98
2019-03-17T18:31:42.060Z,1.90
2019-03-17T18:34:11.303Z,2.00
2019-03-17T18:36:40.472Z,1.80
2019-03-17T18:39:09.487Z,1.90
2019-03-17T18:41:38.691Z,2.10
2019-03-17T18:44:07.612Z,1.90
2019-03-17T18:46:36.424Z,2.00
2019-03-17T18:49:05.226Z,2.00
2019-03-17T18:51:34.251Z,2.42
2019-03-17T18:54:05.411Z,2.60
2019-03-17T18:56:33.756Z,2.60
2019-03-17T18:59:02.515Z,2.42
2019-03-17T19:01:31.578Z,2.50
2019-03-17T19:04:00.591Z,2.43
2019-03-17T19:06:29.446Z,2.55
2019-03-17T19:08:58.312Z,2.70
2019-03-17T19:11:27.434Z,2.92
2019-03-17T19:13:56.491Z,2.73
2019-03-17T19:16:25.334Z,2.92
2019-03-17T19:18:54.202Z,2.90
2019-03-17T19:21:23.430Z,2.90
2019-03-17T19:23:52.234Z,3.10
2019-03-17T19:26:21.041Z,2.80
2019-03-17T19:28:50.010Z,2.98
2019-03-17T19:31:19.705Z,3.35
2019-03-17T19:33:48.466Z,2.77
2019-03-17T19:36:18.133Z,2.40
2019-03-17T19:38:47.869Z,2.40
2019-03-17T19:41:16.696Z,2.37
2019-03-17T19:43:45.740Z,2.50
2019-03-17T19:46:14.508Z,2.53
2019-03-17T19:48:43.266Z,2.50
2019-03-17T19:51:12.109Z,2.40
2019-03-17T19:53:41.207Z,2.65
2019-03-17T19:56:10.068Z,2.90
2019-03-17T19:58:40.627Z,3.00
2019-03-17T20:01:09.770Z,3.15
2019-03-17T20:03:39.114Z,2.95
2019-03-17T20:06:10.595Z,3.10
2019-03-17T20:08:39.329Z,3.10
2019-03-17T20:11:08.188Z,3.20
2019-03-17T20:13:36.951Z,3.08
2019-03-17T20:16:06.842Z,3.10
2019-03-17T20:18:35.813Z,3.37
2019-03-17T20:21:04.691Z,3.17
2019-03-17T20:23:33.464Z,3.35
2019-03-17T20:26:02.266Z,3.10
2019-03-17T20:28:31.008Z,3.10
2019-03-17T20:30:59.842Z,3.20
2019-03-17T20:33:28.576Z,3.00
2019-03-17T20:35:57.577Z,3.20
2019-03-17T20:38:26.351Z,3.20
2019-03-17T20:40:55.445Z,2.95
2019-03-17T20:43:34.767Z,3.40
2019-03-17T20:45:55.437Z,3.10
2019-03-17T20:50:19.002Z,2.80
2019-03-17T20:52:51.193Z,2.58
2019-03-17T20:55:20.301Z,2.00
2019-03-17T20:57:49.048Z,2.00
2019-03-17T21:00:17.982Z,2.02
2019-03-17T21:02:47.193Z,1.90
2019-03-17T21:05:15.920Z,2.08
2019-03-17T21:07:45.176Z,1.70
2019-03-17T21:10:14.560Z,2.00
2019-03-17T21:12:43.518Z,2.37
2019-03-17T21:15:12.850Z,2.20
2019-03-17T21:17:41.700Z,2.20
2019-03-17T21:20:12.724Z,2.00
2019-03-17T21:22:41.891Z,1.98
2019-03-17T21:25:11.023Z,2.00
2019-03-17T21:27:39.836Z,1.80
2019-03-17T21:30:14.721Z,2.20
2019-03-17T21:32:43.488Z,2.20
2019-03-17T21:35:12.407Z,1.90
2019-03-17T21:37:41.664Z,2.23
2019-03-17T21:40:11.198Z,2.20
2019-03-17T21:42:39.979Z,1.77
2019-03-17T21:45:09.034Z,2.00
2019-03-17T21:47:37.826Z,2.20
2019-03-17T21:50:08.339Z,1.72
2019-03-17T21:52:37.458Z,2.10
2019-03-17T21:55:06.381Z,1.87
2019-03-17T21:57:35.502Z,1.90
2019-03-17T22:00:05.076Z,1.80
2019-03-17T22:02:33.935Z,1.80
2019-03-17T22:05:02.682Z,2.00
2019-03-17T22:07:31.512Z,2.00
2019-03-17T22:10:00.373Z,2.10
2019-03-17T22:12:29.614Z,2.08
2019-03-17T22:14:58.392Z,2.00
2019-03-17T22:17:27.129Z,1.80
2019-03-17T22:19:56.244Z,1.60
2019-03-17T22:22:25.366Z,1.80
2019-03-17T22:24:54.133Z,1.90
2019-03-17T22:27:23.148Z,1.90
2019-03-17T22:29:51.904Z,2.00
2019-03-17T22:32:20.722Z,2.15
2019-03-17T22:34:49.749Z,1.92
2019-03-17T22:37:18.501Z,2.20
2019-03-17T22:39:47.494Z,2.50
2019-03-17T22:42:16.229Z,1.90
2019-03-17T22:44:45.089Z,2.30
2019-03-17T22:47:13.896Z,1.77
2019-03-17T22:49:42.964Z,2.00
2019-03-17T22:52:11.764Z,2.20
2019-03-17T22:54:40.496Z,1.90
2019-03-17T22:57:09.501Z,2.00
2019-03-17T22:59:38.259Z,2.30
2019-03-17T23:02:07.144Z,2.20
2019-03-17T23:04:35.907Z,2.00
2019-03-17T23:07:04.725Z,2.40
2019-03-17T23:09:33.492Z,2.63
2019-03-17T23:12:02.618Z,3.27
2019-03-17T23:14:36.691Z,3.10
2019-03-17T23:17:02.002Z,3.00
2019-03-17T23:19:30.828Z,3.33
2019-03-17T23:21:59.578Z,3.10
2019-03-17T23:24:28.389Z,2.90
2019-03-17T23:26:57.138Z,3.10
2019-03-17T23:29:25.977Z,2.22
2019-03-17T23:31:54.793Z,2.30
2019-03-17T23:34:23.667Z,2.70
2019-03-17T23:36:52.423Z,3.10
2019-03-17T23:39:21.511Z,2.70
2019-03-17T23:41:50.603Z,2.75
2019-03-17T23:44:19.465Z,2.50
2019-03-17T23:46:48.291Z,2.60
2019-03-17T23:49:17.100Z,2.65
2019-03-17T23:51:45.857Z,3.08
2019-03-17T23:54:14.896Z,2.75
2019-03-17T23:56:43.908Z,3.50
2019-03-17T23:59:13.009Z,3.25
